sensor_id;sensor_type;location;lat;lon;timestamp;P1;durP1;ratioP1;P2;durP2;ratioP2
80293;SDS011;69594;43.516;1.498;2023-05-07T00:00:05;9.10;;;3.47;;
80293;SDS011;69594;43.516;1.498;2023-05-07T00:02:34;5.63;;;3.63;;
80293;SDS011;69594;43.516;1.498;2023-05-07T00:05:01;7.07;;;3.55;;
80293;SDS011;69594;43.516;1.498;2023-05-07T00:07:27;7.28;;;3.60;;
80293;SDS011;69594;43.516;1.498;2023-05-07T00:09:52;9.53;;;3.53;;
80293;SDS011;69594;43.516;1.498;2023-05-07T00:12:18;7.90;;;3.80;;
80293;SDS011;69594;43.516;1.498;2023-05-07T00:14:43;6.90;;;3.70;;
80293;SDS011;69594;43.516;1.498;2023-05-07T00:17:09;6.73;;;3.57;;
80293;SDS011;69594;43.516;1.498;2023-05-07T00:19:34;9.37;;;3.70;;
80293;SDS011;69594;43.516;1.498;2023-05-07T00:21:59;7.90;;;3.80;;
80293;SDS011;69594;43.516;1.498;2023-05-07T00:24:25;6.53;;;3.72;;
80293;SDS011;69594;43.516;1.498;2023-05-07T00:26:50;5.53;;;3.10;;
80293;SDS011;69594;43.516;1.498;2023-05-07T00:29:16;6.80;;;3.10;;
80293;SDS011;69594;43.516;1.498;2023-05-07T00:31:41;10.23;;;3.90;;
80293;SDS011;69594;43.516;1.498;2023-05-07T00:34:07;8.00;;;3.30;;
80293;SDS011;69594;43.516;1.498;2023-05-07T00:36:32;7.63;;;3.33;;
80293;SDS011;69594;43.516;1.498;2023-05-07T00:38:59;9.17;;;3.83;;
80293;SDS011;69594;43.516;1.498;2023-05-07T00:41:25;6.38;;;3.33;;
80293;SDS011;69594;43.516;1.498;2023-05-07T00:43:51;6.83;;;3.00;;
80293;SDS011;69594;43.516;1.498;2023-05-07T00:46:17;9.10;;;3.55;;
80293;SDS011;69594;43.516;1.498;2023-05-07T00:48:44;9.10;;;3.83;;
80293;SDS011;69594;43.516;1.498;2023-05-07T00:51:10;5.47;;;3.03;;
80293;SDS011;69594;43.516;1.498;2023-05-07T00:53:36;13.00;;;3.63;;
80293;SDS011;69594;43.516;1.498;2023-05-07T00:56:02;7.20;;;3.60;;
80293;SDS011;69594;43.516;1.498;2023-05-07T00:58:28;7.13;;;3.37;;
80293;SDS011;69594;43.516;1.498;2023-05-07T01:00:53;6.28;;;3.55;;
80293;SDS011;69594;43.516;1.498;2023-05-07T01:03:19;10.37;;;3.13;;
80293;SDS011;69594;43.516;1.498;2023-05-07T01:05:44;7.13;;;3.27;;
80293;SDS011;69594;43.516;1.498;2023-05-07T01:08:12;5.40;;;3.20;;
80293;SDS011;69594;43.516;1.498;2023-05-07T01:10:40;9.98;;;3.35;;
80293;SDS011;69594;43.516;1.498;2023-05-07T01:13:08;6.45;;;3.28;;
80293;SDS011;69594;43.516;1.498;2023-05-07T01:15:35;6.83;;;3.20;;
80293;SDS011;69594;43.516;1.498;2023-05-07T01:18:01;5.78;;;3.00;;
80293;SDS011;69594;43.516;1.498;2023-05-07T01:20:27;7.88;;;3.47;;
80293;SDS011;69594;43.516;1.498;2023-05-07T01:22:53;7.13;;;2.78;;
80293;SDS011;69594;43.516;1.498;2023-05-07T01:25:20;6.38;;;3.08;;
80293;SDS011;69594;43.516;1.498;2023-05-07T01:27:45;9.87;;;3.80;;
80293;SDS011;69594;43.516;1.498;2023-05-07T01:30:11;5.75;;;2.75;;
80293;SDS011;69594;43.516;1.498;2023-05-07T01:32:42;6.50;;;2.83;;
80293;SDS011;69594;43.516;1.498;2023-05-07T01:35:11;5.50;;;2.88;;
80293;SDS011;69594;43.516;1.498;2023-05-07T01:37:42;6.57;;;2.80;;
80293;SDS011;69594;43.516;1.498;2023-05-07T01:40:08;5.25;;;2.45;;
80293;SDS011;69594;43.516;1.498;2023-05-07T01:42:34;5.33;;;2.43;;
80293;SDS011;69594;43.516;1.498;2023-05-07T01:45:00;10.07;;;2.53;;
80293;SDS011;69594;43.516;1.498;2023-05-07T01:47:26;5.40;;;2.70;;
80293;SDS011;69594;43.516;1.498;2023-05-07T01:49:51;7.28;;;2.65;;
80293;SDS011;69594;43.516;1.498;2023-05-07T01:52:17;6.40;;;3.00;;
80293;SDS011;69594;43.516;1.498;2023-05-07T01:54:42;10.10;;;2.70;;
80293;SDS011;69594;43.516;1.498;2023-05-07T01:57:08;8.40;;;2.70;;
80293;SDS011;69594;43.516;1.498;2023-05-07T01:59:33;8.37;;;2.50;;
80293;SDS011;69594;43.516;1.498;2023-05-07T02:01:59;7.70;;;3.23;;
80293;SDS011;69594;43.516;1.498;2023-05-07T02:04:25;7.85;;;2.40;;
80293;SDS011;69594;43.516;1.498;2023-05-07T02:06:51;7.70;;;2.65;;
80293;SDS011;69594;43.516;1.498;2023-05-07T02:09:17;7.07;;;2.73;;
80293;SDS011;69594;43.516;1.498;2023-05-07T02:11:43;10.77;;;2.90;;
80293;SDS011;69594;43.516;1.498;2023-05-07T02:14:09;9.27;;;2.50;;
80293;SDS011;69594;43.516;1.498;2023-05-07T02:16:35;6.53;;;2.10;;
80293;SDS011;69594;43.516;1.498;2023-05-07T02:19:00;5.77;;;2.30;;
80293;SDS011;69594;43.516;1.498;2023-05-07T02:21:25;8.77;;;2.90;;
80293;SDS011;69594;43.516;1.498;2023-05-07T02:23:51;9.17;;;3.00;;
80293;SDS011;69594;43.516;1.498;2023-05-07T02:26:16;6.40;;;2.60;;
80293;SDS011;69594;43.516;1.498;2023-05-07T02:28:43;8.57;;;2.63;;
80293;SDS011;69594;43.516;1.498;2023-05-07T02:31:08;5.67;;;2.27;;
80293;SDS011;69594;43.516;1.498;2023-05-07T02:33:34;8.30;;;2.10;;
80293;SDS011;69594;43.516;1.498;2023-05-07T02:36:10;8.75;;;2.90;;
80293;SDS011;69594;43.516;1.498;2023-05-07T02:38:35;7.35;;;2.50;;
80293;SDS011;69594;43.516;1.498;2023-05-07T02:41:01;6.53;;;2.30;;
80293;SDS011;69594;43.516;1.498;2023-05-07T02:43:26;7.30;;;2.67;;
80293;SDS011;69594;43.516;1.498;2023-05-07T02:48:27;7.20;;;2.00;;
80293;SDS011;69594;43.516;1.498;2023-05-07T02:50:53;6.77;;;2.40;;
80293;SDS011;69594;43.516;1.498;2023-05-07T02:53:18;10.03;;;2.73;;
80293;SDS011;69594;43.516;1.498;2023-05-07T02:55:43;6.80;;;2.57;;
80293;SDS011;69594;43.516;1.498;2023-05-07T02:58:09;11.83;;;2.67;;
80293;SDS011;69594;43.516;1.498;2023-05-07T03:00:34;9.10;;;2.97;;
80293;SDS011;69594;43.516;1.498;2023-05-07T03:03:00;7.13;;;2.57;;
80293;SDS011;69594;43.516;1.498;2023-05-07T03:05:25;7.07;;;2.63;;
80293;SDS011;69594;43.516;1.498;2023-05-07T03:07:50;9.87;;;2.60;;
80293;SDS011;69594;43.516;1.498;2023-05-07T03:10:16;6.57;;;2.33;;
80293;SDS011;69594;43.516;1.498;2023-05-07T03:12:41;7.95;;;2.47;;
80293;SDS011;69594;43.516;1.498;2023-05-07T03:15:07;8.30;;;2.93;;
80293;SDS011;69594;43.516;1.498;2023-05-07T03:17:33;9.48;;;2.95;;
80293;SDS011;69594;43.516;1.498;2023-05-07T03:19:58;7.53;;;2.57;;
80293;SDS011;69594;43.516;1.498;2023-05-07T03:22:24;8.73;;;2.40;;
80293;SDS011;69594;43.516;1.498;2023-05-07T03:24:49;7.78;;;2.50;;
80293;SDS011;69594;43.516;1.498;2023-05-07T03:27:15;8.17;;;2.87;;
80293;SDS011;69594;43.516;1.498;2023-05-07T03:29:40;7.83;;;2.43;;
80293;SDS011;69594;43.516;1.498;2023-05-07T03:32:06;7.07;;;2.60;;
80293;SDS011;69594;43.516;1.498;2023-05-07T03:34:31;7.50;;;2.60;;
80293;SDS011;69594;43.516;1.498;2023-05-07T03:36:56;8.37;;;2.70;;
80293;SDS011;69594;43.516;1.498;2023-05-07T03:39:22;10.97;;;2.53;;
80293;SDS011;69594;43.516;1.498;2023-05-07T03:41:47;8.40;;;2.57;;
80293;SDS011;69594;43.516;1.498;2023-05-07T03:44:13;6.28;;;2.15;;
80293;SDS011;69594;43.516;1.498;2023-05-07T03:46:38;7.50;;;1.70;;
80293;SDS011;69594;43.516;1.498;2023-05-07T03:49:04;11.33;;;3.03;;
80293;SDS011;69594;43.516;1.498;2023-05-07T03:51:29;7.97;;;3.00;;
80293;SDS011;69594;43.516;1.498;2023-05-07T03:53:55;10.93;;;2.65;;
80293;SDS011;69594;43.516;1.498;2023-05-07T03:56:22;7.63;;;2.47;;
80293;SDS011;69594;43.516;1.498;2023-05-07T03:58:51;9.50;;;3.20;;
80293;SDS011;69594;43.516;1.498;2023-05-07T04:01:17;7.07;;;2.37;;
80293;SDS011;69594;43.516;1.498;2023-05-07T04:03:42;7.27;;;2.40;;
80293;SDS011;69594;43.516;1.498;2023-05-07T04:06:07;10.40;;;2.50;;
80293;SDS011;69594;43.516;1.498;2023-05-07T04:08:36;9.27;;;2.73;;
80293;SDS011;69594;43.516;1.498;2023-05-07T04:11:01;8.45;;;2.78;;
80293;SDS011;69594;43.516;1.498;2023-05-07T04:13:27;5.83;;;2.53;;
80293;SDS011;69594;43.516;1.498;2023-05-07T04:15:53;10.67;;;2.10;;
80293;SDS011;69594;43.516;1.498;2023-05-07T04:18:20;7.10;;;2.50;;
80293;SDS011;69594;43.516;1.498;2023-05-07T04:20:46;9.98;;;2.70;;
80293;SDS011;69594;43.516;1.498;2023-05-07T04:23:12;8.48;;;2.50;;
80293;SDS011;69594;43.516;1.498;2023-05-07T04:25:37;9.53;;;2.87;;
80293;SDS011;69594;43.516;1.498;2023-05-07T04:28:03;7.87;;;2.30;;
80293;SDS011;69594;43.516;1.498;2023-05-07T04:30:28;13.23;;;2.83;;
80293;SDS011;69594;43.516;1.498;2023-05-07T04:32:54;7.30;;;2.53;;
80293;SDS011;69594;43.516;1.498;2023-05-07T04:35:19;9.33;;;2.70;;
80293;SDS011;69594;43.516;1.498;2023-05-07T04:37:45;7.33;;;2.40;;
80293;SDS011;69594;43.516;1.498;2023-05-07T04:40:10;8.70;;;2.50;;
80293;SDS011;69594;43.516;1.498;2023-05-07T04:42:36;9.02;;;2.22;;
80293;SDS011;69594;43.516;1.498;2023-05-07T04:45:01;6.97;;;2.53;;
80293;SDS011;69594;43.516;1.498;2023-05-07T04:47:27;11.25;;;2.65;;
80293;SDS011;69594;43.516;1.498;2023-05-07T04:49:53;9.07;;;2.53;;
80293;SDS011;69594;43.516;1.498;2023-05-07T04:52:18;8.37;;;2.67;;
80293;SDS011;69594;43.516;1.498;2023-05-07T04:54:43;5.23;;;2.33;;
80293;SDS011;69594;43.516;1.498;2023-05-07T04:57:09;9.43;;;3.00;;
80293;SDS011;69594;43.516;1.498;2023-05-07T04:59:34;8.97;;;2.27;;
80293;SDS011;69594;43.516;1.498;2023-05-07T05:02:00;6.77;;;2.20;;
80293;SDS011;69594;43.516;1.498;2023-05-07T05:04:26;7.55;;;2.15;;
80293;SDS011;69594;43.516;1.498;2023-05-07T05:06:52;7.63;;;2.05;;
80293;SDS011;69594;43.516;1.498;2023-05-07T05:09:17;10.37;;;2.83;;
80293;SDS011;69594;43.516;1.498;2023-05-07T05:11:43;5.70;;;1.53;;
80293;SDS011;69594;43.516;1.498;2023-05-07T05:14:08;7.55;;;2.25;;
80293;SDS011;69594;43.516;1.498;2023-05-07T05:16:33;9.63;;;2.20;;
80293;SDS011;69594;43.516;1.498;2023-05-07T05:18:59;8.03;;;2.03;;
80293;SDS011;69594;43.516;1.498;2023-05-07T05:21:24;6.03;;;2.27;;
80293;SDS011;69594;43.516;1.498;2023-05-07T05:23:50;8.23;;;2.20;;
80293;SDS011;69594;43.516;1.498;2023-05-07T05:26:15;7.80;;;2.00;;
80293;SDS011;69594;43.516;1.498;2023-05-07T05:28:41;8.87;;;2.40;;
80293;SDS011;69594;43.516;1.498;2023-05-07T05:31:06;9.47;;;2.23;;
80293;SDS011;69594;43.516;1.498;2023-05-07T05:33:31;6.57;;;2.10;;
80293;SDS011;69594;43.516;1.498;2023-05-07T05:35:57;10.23;;;2.45;;
80293;SDS011;69594;43.516;1.498;2023-05-07T05:38:22;8.70;;;2.70;;
80293;SDS011;69594;43.516;1.498;2023-05-07T05:40:48;13.13;;;2.57;;
80293;SDS011;69594;43.516;1.498;2023-05-07T05:43:13;7.97;;;2.40;;
80293;SDS011;69594;43.516;1.498;2023-05-07T05:45:39;10.25;;;2.35;;
80293;SDS011;69594;43.516;1.498;2023-05-07T05:48:05;8.83;;;2.33;;
80293;SDS011;69594;43.516;1.498;2023-05-07T05:50:30;7.63;;;2.08;;
80293;SDS011;69594;43.516;1.498;2023-05-07T05:52:56;7.40;;;2.63;;
80293;SDS011;69594;43.516;1.498;2023-05-07T05:55:21;7.17;;;2.33;;
80293;SDS011;69594;43.516;1.498;2023-05-07T05:57:47;7.78;;;2.30;;
80293;SDS011;69594;43.516;1.498;2023-05-07T06:00:13;11.93;;;2.80;;
80293;SDS011;69594;43.516;1.498;2023-05-07T06:02:38;8.83;;;2.43;;
80293;SDS011;69594;43.516;1.498;2023-05-07T06:05:04;10.93;;;2.27;;
80293;SDS011;69594;43.516;1.498;2023-05-07T06:07:30;9.40;;;2.30;;
80293;SDS011;69594;43.516;1.498;2023-05-07T06:09:55;9.07;;;2.30;;
80293;SDS011;69594;43.516;1.498;2023-05-07T06:12:21;6.95;;;1.90;;
80293;SDS011;69594;43.516;1.498;2023-05-07T06:14:46;11.47;;;2.57;;
80293;SDS011;69594;43.516;1.498;2023-05-07T06:17:12;9.67;;;2.27;;
80293;SDS011;69594;43.516;1.498;2023-05-07T06:19:37;6.85;;;2.45;;
80293;SDS011;69594;43.516;1.498;2023-05-07T06:22:03;7.17;;;2.03;;
80293;SDS011;69594;43.516;1.498;2023-05-07T06:24:28;6.57;;;2.33;;
80293;SDS011;69594;43.516;1.498;2023-05-07T06:26:54;9.02;;;2.30;;
80293;SDS011;69594;43.516;1.498;2023-05-07T06:29:20;9.13;;;2.30;;
80293;SDS011;69594;43.516;1.498;2023-05-07T06:31:45;9.43;;;2.77;;
80293;SDS011;69594;43.516;1.498;2023-05-07T06:34:11;7.25;;;2.40;;
80293;SDS011;69594;43.516;1.498;2023-05-07T06:36:39;7.50;;;2.30;;
80293;SDS011;69594;43.516;1.498;2023-05-07T06:39:05;6.53;;;2.20;;
80293;SDS011;69594;43.516;1.498;2023-05-07T06:41:31;9.13;;;2.65;;
80293;SDS011;69594;43.516;1.498;2023-05-07T06:43:56;8.70;;;2.77;;
80293;SDS011;69594;43.516;1.498;2023-05-07T06:46:22;10.27;;;2.57;;
80293;SDS011;69594;43.516;1.498;2023-05-07T06:48:47;9.63;;;2.47;;
80293;SDS011;69594;43.516;1.498;2023-05-07T06:51:12;7.45;;;2.13;;
80293;SDS011;69594;43.516;1.498;2023-05-07T06:53:38;9.80;;;2.00;;
80293;SDS011;69594;43.516;1.498;2023-05-07T06:56:03;13.40;;;3.03;;
80293;SDS011;69594;43.516;1.498;2023-05-07T06:58:29;7.13;;;2.30;;
80293;SDS011;69594;43.516;1.498;2023-05-07T07:00:55;7.63;;;2.03;;
80293;SDS011;69594;43.516;1.498;2023-05-07T07:03:20;6.97;;;2.60;;
80293;SDS011;69594;43.516;1.498;2023-05-07T07:05:45;7.40;;;2.30;;
80293;SDS011;69594;43.516;1.498;2023-05-07T07:08:11;6.00;;;2.23;;
80293;SDS011;69594;43.516;1.498;2023-05-07T07:10:36;8.45;;;2.17;;
80293;SDS011;69594;43.516;1.498;2023-05-07T07:13:02;9.70;;;2.33;;
80293;SDS011;69594;43.516;1.498;2023-05-07T07:15:27;10.03;;;2.40;;
80293;SDS011;69594;43.516;1.498;2023-05-07T07:17:52;11.10;;;3.03;;
80293;SDS011;69594;43.516;1.498;2023-05-07T07:20:18;8.20;;;2.63;;
80293;SDS011;69594;43.516;1.498;2023-05-07T07:22:43;8.77;;;2.87;;
80293;SDS011;69594;43.516;1.498;2023-05-07T07:25:09;8.27;;;2.47;;
80293;SDS011;69594;43.516;1.498;2023-05-07T07:27:34;9.67;;;2.43;;
80293;SDS011;69594;43.516;1.498;2023-05-07T07:30:00;10.10;;;2.70;;
80293;SDS011;69594;43.516;1.498;2023-05-07T07:32:26;8.30;;;2.07;;
80293;SDS011;69594;43.516;1.498;2023-05-07T07:34:51;9.30;;;2.27;;
80293;SDS011;69594;43.516;1.498;2023-05-07T07:37:16;9.63;;;2.80;;
80293;SDS011;69594;43.516;1.498;2023-05-07T07:39:42;9.60;;;2.63;;
80293;SDS011;69594;43.516;1.498;2023-05-07T07:42:07;11.37;;;2.43;;
80293;SDS011;69594;43.516;1.498;2023-05-07T07:44:33;7.18;;;2.25;;
80293;SDS011;69594;43.516;1.498;2023-05-07T07:46:58;12.40;;;2.93;;
80293;SDS011;69594;43.516;1.498;2023-05-07T07:49:24;8.77;;;2.83;;
80293;SDS011;69594;43.516;1.498;2023-05-07T07:51:49;8.30;;;2.47;;
80293;SDS011;69594;43.516;1.498;2023-05-07T07:54:16;11.40;;;2.78;;
80293;SDS011;69594;43.516;1.498;2023-05-07T07:56:41;7.57;;;2.47;;
80293;SDS011;69594;43.516;1.498;2023-05-07T07:59:07;8.20;;;2.13;;
80293;SDS011;69594;43.516;1.498;2023-05-07T08:01:33;9.80;;;2.77;;
80293;SDS011;69594;43.516;1.498;2023-05-07T08:03:59;7.30;;;2.15;;
80293;SDS011;69594;43.516;1.498;2023-05-07T08:06:24;10.63;;;2.57;;
80293;SDS011;69594;43.516;1.498;2023-05-07T08:08:53;10.93;;;2.70;;
80293;SDS011;69594;43.516;1.498;2023-05-07T08:11:19;8.60;;;2.10;;
80293;SDS011;69594;43.516;1.498;2023-05-07T08:13:45;7.47;;;2.53;;
80293;SDS011;69594;43.516;1.498;2023-05-07T08:16:11;7.15;;;1.83;;
80293;SDS011;69594;43.516;1.498;2023-05-07T08:18:36;9.50;;;2.13;;
80293;SDS011;69594;43.516;1.498;2023-05-07T08:21:01;6.67;;;2.07;;
80293;SDS011;69594;43.516;1.498;2023-05-07T08:23:27;8.55;;;2.38;;
80293;SDS011;69594;43.516;1.498;2023-05-07T08:25:53;8.73;;;2.27;;
80293;SDS011;69594;43.516;1.498;2023-05-07T08:28:18;9.40;;;2.70;;
80293;SDS011;69594;43.516;1.498;2023-05-07T08:30:44;8.40;;;2.80;;
80293;SDS011;69594;43.516;1.498;2023-05-07T08:33:10;12.90;;;3.33;;
80293;SDS011;69594;43.516;1.498;2023-05-07T08:35:35;10.00;;;4.00;;
80293;SDS011;69594;43.516;1.498;2023-05-07T08:38:01;15.53;;;4.00;;
80293;SDS011;69594;43.516;1.498;2023-05-07T08:40:26;15.43;;;4.10;;
80293;SDS011;69594;43.516;1.498;2023-05-07T08:42:53;13.45;;;4.30;;
80293;SDS011;69594;43.516;1.498;2023-05-07T08:45:20;14.30;;;3.85;;
80293;SDS011;69594;43.516;1.498;2023-05-07T08:47:52;10.35;;;5.07;;
80293;SDS011;69594;43.516;1.498;2023-05-07T08:50:21;16.45;;;5.78;;
80293;SDS011;69594;43.516;1.498;2023-05-07T08:52:47;13.13;;;5.37;;
80293;SDS011;69594;43.516;1.498;2023-05-07T08:55:12;10.98;;;5.20;;
80293;SDS011;69594;43.516;1.498;2023-05-07T08:57:38;12.07;;;4.63;;
80293;SDS011;69594;43.516;1.498;2023-05-07T09:00:04;12.23;;;3.23;;
80293;SDS011;69594;43.516;1.498;2023-05-07T09:02:32;10.43;;;2.58;;
80293;SDS011;69594;43.516;1.498;2023-05-07T09:04:59;13.68;;;2.35;;
80293;SDS011;69594;43.516;1.498;2023-05-07T09:07:25;8.07;;;1.87;;
80293;SDS011;69594;43.516;1.498;2023-05-07T09:09:51;8.13;;;2.28;;
80293;SDS011;69594;43.516;1.498;2023-05-07T09:12:17;8.23;;;2.03;;
80293;SDS011;69594;43.516;1.498;2023-05-07T09:14:43;7.95;;;2.58;;
80293;SDS011;69594;43.516;1.498;2023-05-07T09:17:09;10.30;;;2.50;;
80293;SDS011;69594;43.516;1.498;2023-05-07T09:19:34;10.80;;;2.20;;
80293;SDS011;69594;43.516;1.498;2023-05-07T09:22:01;7.93;;;2.57;;
80293;SDS011;69594;43.516;1.498;2023-05-07T09:24:27;5.13;;;2.30;;
80293;SDS011;69594;43.516;1.498;2023-05-07T09:26:57;6.05;;;1.90;;
80293;SDS011;69594;43.516;1.498;2023-05-07T09:29:23;7.80;;;2.30;;
80293;SDS011;69594;43.516;1.498;2023-05-07T09:31:48;12.83;;;2.33;;
80293;SDS011;69594;43.516;1.498;2023-05-07T09:34:13;8.33;;;2.23;;
80293;SDS011;69594;43.516;1.498;2023-05-07T09:36:39;7.47;;;2.33;;
80293;SDS011;69594;43.516;1.498;2023-05-07T09:39:04;9.35;;;1.88;;
80293;SDS011;69594;43.516;1.498;2023-05-07T09:41:30;8.53;;;2.40;;
80293;SDS011;69594;43.516;1.498;2023-05-07T09:44:15;10.77;;;2.15;;
80293;SDS011;69594;43.516;1.498;2023-05-07T09:46:42;10.80;;;2.53;;
80293;SDS011;69594;43.516;1.498;2023-05-07T09:49:12;10.57;;;2.13;;
80293;SDS011;69594;43.516;1.498;2023-05-07T09:51:49;10.00;;;2.80;;
80293;SDS011;69594;43.516;1.498;2023-05-07T09:54:16;7.70;;;2.10;;
80293;SDS011;69594;43.516;1.498;2023-05-07T09:56:43;9.70;;;2.80;;
80293;SDS011;69594;43.516;1.498;2023-05-07T09:59:13;10.80;;;2.60;;
80293;SDS011;69594;43.516;1.498;2023-05-07T10:01:41;6.93;;;2.30;;
80293;SDS011;69594;43.516;1.498;2023-05-07T10:04:07;10.85;;;2.35;;
80293;SDS011;69594;43.516;1.498;2023-05-07T10:06:34;7.60;;;2.75;;
80293;SDS011;69594;43.516;1.498;2023-05-07T10:09:00;8.05;;;2.33;;
80293;SDS011;69594;43.516;1.498;2023-05-07T10:11:26;7.43;;;2.25;;
80293;SDS011;69594;43.516;1.498;2023-05-07T10:13:52;8.03;;;2.77;;
80293;SDS011;69594;43.516;1.498;2023-05-07T10:16:18;12.05;;;2.80;;
80293;SDS011;69594;43.516;1.498;2023-05-07T10:18:45;8.07;;;2.30;;
80293;SDS011;69594;43.516;1.498;2023-05-07T10:21:18;8.52;;;2.60;;
80293;SDS011;69594;43.516;1.498;2023-05-07T10:23:45;9.73;;;2.43;;
80293;SDS011;69594;43.516;1.498;2023-05-07T10:26:15;7.30;;;2.30;;
80293;SDS011;69594;43.516;1.498;2023-05-07T10:28:44;7.80;;;2.15;;
80293;SDS011;69594;43.516;1.498;2023-05-07T10:33:37;14.07;;;2.73;;
80293;SDS011;69594;43.516;1.498;2023-05-07T10:36:04;7.68;;;2.30;;
80293;SDS011;69594;43.516;1.498;2023-05-07T10:38:31;8.73;;;2.70;;
80293;SDS011;69594;43.516;1.498;2023-05-07T10:40:57;5.70;;;2.23;;
80293;SDS011;69594;43.516;1.498;2023-05-07T10:43:23;10.50;;;2.58;;
80293;SDS011;69594;43.516;1.498;2023-05-07T10:51:36;7.35;;;1.83;;
80293;SDS011;69594;43.516;1.498;2023-05-07T10:56:45;7.10;;;2.20;;
80293;SDS011;69594;43.516;1.498;2023-05-07T11:01:55;9.40;;;2.45;;
80293;SDS011;69594;43.516;1.498;2023-05-07T11:04:27;6.75;;;2.50;;
80293;SDS011;69594;43.516;1.498;2023-05-07T11:15:10;8.60;;;2.13;;
80293;SDS011;69594;43.516;1.498;2023-05-07T11:17:52;6.63;;;2.30;;
80293;SDS011;69594;43.516;1.498;2023-05-07T11:20:19;8.23;;;2.30;;
80293;SDS011;69594;43.516;1.498;2023-05-07T11:22:45;7.20;;;2.17;;
80293;SDS011;69594;43.516;1.498;2023-05-07T11:25:11;9.13;;;2.30;;
80293;SDS011;69594;43.516;1.498;2023-05-07T11:27:43;5.60;;;1.90;;
80293;SDS011;69594;43.516;1.498;2023-05-07T11:30:08;7.37;;;2.50;;
80293;SDS011;69594;43.516;1.498;2023-05-07T11:32:34;11.00;;;2.85;;
80293;SDS011;69594;43.516;1.498;2023-05-07T11:35:00;7.60;;;2.63;;
80293;SDS011;69594;43.516;1.498;2023-05-07T11:37:26;7.35;;;2.15;;
80293;SDS011;69594;43.516;1.498;2023-05-07T11:40:07;10.35;;;2.55;;
80293;SDS011;69594;43.516;1.498;2023-05-07T11:42:37;8.60;;;2.63;;
80293;SDS011;69594;43.516;1.498;2023-05-07T11:45:04;8.23;;;2.38;;
80293;SDS011;69594;43.516;1.498;2023-05-07T11:47:31;6.63;;;1.70;;
80293;SDS011;69594;43.516;1.498;2023-05-07T11:49:57;10.55;;;2.38;;
80293;SDS011;69594;43.516;1.498;2023-05-07T11:52:28;7.15;;;2.45;;
80293;SDS011;69594;43.516;1.498;2023-05-07T11:54:55;6.53;;;1.90;;
80293;SDS011;69594;43.516;1.498;2023-05-07T11:57:25;8.98;;;2.25;;
80293;SDS011;69594;43.516;1.498;2023-05-07T11:59:57;7.83;;;2.27;;
80293;SDS011;69594;43.516;1.498;2023-05-07T12:02:24;5.63;;;1.73;;
80293;SDS011;69594;43.516;1.498;2023-05-07T12:04:51;6.72;;;1.60;;
80293;SDS011;69594;43.516;1.498;2023-05-07T12:07:17;10.68;;;2.22;;
80293;SDS011;69594;43.516;1.498;2023-05-07T12:09:43;8.00;;;2.15;;
80293;SDS011;69594;43.516;1.498;2023-05-07T12:12:10;6.33;;;1.97;;
80293;SDS011;69594;43.516;1.498;2023-05-07T12:14:39;6.82;;;1.77;;
80293;SDS011;69594;43.516;1.498;2023-05-07T12:17:09;6.22;;;2.33;;
80293;SDS011;69594;43.516;1.498;2023-05-07T12:19:36;9.30;;;2.50;;
80293;SDS011;69594;43.516;1.498;2023-05-07T12:22:03;11.32;;;2.30;;
80293;SDS011;69594;43.516;1.498;2023-05-07T12:24:28;5.57;;;2.07;;
80293;SDS011;69594;43.516;1.498;2023-05-07T12:26:54;7.97;;;1.92;;
80293;SDS011;69594;43.516;1.498;2023-05-07T12:29:23;8.03;;;2.23;;
80293;SDS011;69594;43.516;1.498;2023-05-07T12:31:49;8.50;;;2.22;;
80293;SDS011;69594;43.516;1.498;2023-05-07T12:34:15;7.22;;;2.08;;
80293;SDS011;69594;43.516;1.498;2023-05-07T12:36:40;7.17;;;1.97;;
80293;SDS011;69594;43.516;1.498;2023-05-07T12:39:07;7.70;;;2.15;;
80293;SDS011;69594;43.516;1.498;2023-05-07T12:41:57;7.95;;;2.42;;
80293;SDS011;69594;43.516;1.498;2023-05-07T12:44:23;5.77;;;1.90;;
80293;SDS011;69594;43.516;1.498;2023-05-07T12:46:50;8.75;;;2.20;;
80293;SDS011;69594;43.516;1.498;2023-05-07T12:49:16;7.07;;;1.98;;
80293;SDS011;69594;43.516;1.498;2023-05-07T12:51:43;8.88;;;1.73;;
80293;SDS011;69594;43.516;1.498;2023-05-07T12:54:08;7.20;;;1.90;;
80293;SDS011;69594;43.516;1.498;2023-05-07T12:56:37;7.97;;;2.00;;
80293;SDS011;69594;43.516;1.498;2023-05-07T12:59:03;8.90;;;2.00;;
80293;SDS011;69594;43.516;1.498;2023-05-07T13:01:29;7.72;;;1.80;;
80293;SDS011;69594;43.516;1.498;2023-05-07T13:03:56;9.20;;;1.97;;
80293;SDS011;69594;43.516;1.498;2023-05-07T13:06:25;6.80;;;1.85;;
80293;SDS011;69594;43.516;1.498;2023-05-07T13:08:51;4.28;;;1.92;;
80293;SDS011;69594;43.516;1.498;2023-05-07T13:11:16;5.47;;;1.90;;
80293;SDS011;69594;43.516;1.498;2023-05-07T13:13:42;5.73;;;1.80;;
80293;SDS011;69594;43.516;1.498;2023-05-07T13:16:08;8.80;;;2.03;;
80293;SDS011;69594;43.516;1.498;2023-05-07T13:18:35;5.18;;;1.65;;
80293;SDS011;69594;43.516;1.498;2023-05-07T13:21:00;5.40;;;1.90;;
80293;SDS011;69594;43.516;1.498;2023-05-07T13:23:28;6.93;;;2.00;;
80293;SDS011;69594;43.516;1.498;2023-05-07T13:25:53;5.88;;;1.88;;
80293;SDS011;69594;43.516;1.498;2023-05-07T13:28:20;5.87;;;1.80;;
80293;SDS011;69594;43.516;1.498;2023-05-07T13:30:46;6.57;;;1.42;;
80293;SDS011;69594;43.516;1.498;2023-05-07T13:33:12;7.95;;;2.05;;
80293;SDS011;69594;43.516;1.498;2023-05-07T13:35:38;7.33;;;1.63;;
80293;SDS011;69594;43.516;1.498;2023-05-07T13:38:03;5.33;;;1.87;;
80293;SDS011;69594;43.516;1.498;2023-05-07T13:40:29;5.75;;;1.35;;
80293;SDS011;69594;43.516;1.498;2023-05-07T13:42:56;5.35;;;1.52;;
80293;SDS011;69594;43.516;1.498;2023-05-07T13:45:23;5.10;;;1.40;;
80293;SDS011;69594;43.516;1.498;2023-05-07T13:47:50;4.53;;;1.63;;
80293;SDS011;69594;43.516;1.498;2023-05-07T13:50:16;6.50;;;1.92;;
80293;SDS011;69594;43.516;1.498;2023-05-07T13:52:45;5.60;;;1.50;;
80293;SDS011;69594;43.516;1.498;2023-05-07T13:55:16;5.75;;;1.65;;
80293;SDS011;69594;43.516;1.498;2023-05-07T13:57:57;5.17;;;1.40;;
80293;SDS011;69594;43.516;1.498;2023-05-07T14:00:24;4.55;;;1.50;;
80293;SDS011;69594;43.516;1.498;2023-05-07T14:02:51;6.68;;;1.70;;
80293;SDS011;69594;43.516;1.498;2023-05-07T14:05:16;6.17;;;1.80;;
80293;SDS011;69594;43.516;1.498;2023-05-07T14:07:42;5.77;;;1.80;;
80293;SDS011;69594;43.516;1.498;2023-05-07T14:10:07;7.63;;;1.60;;
80293;SDS011;69594;43.516;1.498;2023-05-07T14:12:33;9.77;;;2.23;;
80293;SDS011;69594;43.516;1.498;2023-05-07T14:14:59;4.93;;;1.50;;
80293;SDS011;69594;43.516;1.498;2023-05-07T14:17:24;7.18;;;2.05;;
80293;SDS011;69594;43.516;1.498;2023-05-07T14:19:51;8.17;;;1.73;;
80293;SDS011;69594;43.516;1.498;2023-05-07T14:22:20;6.15;;;2.15;;
80293;SDS011;69594;43.516;1.498;2023-05-07T14:24:50;7.55;;;2.15;;
80293;SDS011;69594;43.516;1.498;2023-05-07T14:27:15;5.95;;;1.70;;
80293;SDS011;69594;43.516;1.498;2023-05-07T14:29:41;8.20;;;1.93;;
80293;SDS011;69594;43.516;1.498;2023-05-07T14:32:07;5.45;;;1.80;;
80293;SDS011;69594;43.516;1.498;2023-05-07T14:34:33;4.90;;;1.80;;
80293;SDS011;69594;43.516;1.498;2023-05-07T14:36:59;7.43;;;1.70;;
80293;SDS011;69594;43.516;1.498;2023-05-07T14:39:24;5.53;;;1.80;;
80293;SDS011;69594;43.516;1.498;2023-05-07T14:41:50;4.15;;;1.40;;
80293;SDS011;69594;43.516;1.498;2023-05-07T14:44:16;7.68;;;1.80;;
80293;SDS011;69594;43.516;1.498;2023-05-07T14:46:42;6.03;;;1.40;;
80293;SDS011;69594;43.516;1.498;2023-05-07T14:49:07;6.03;;;1.80;;
80293;SDS011;69594;43.516;1.498;2023-05-07T14:51:41;4.18;;;1.58;;
80293;SDS011;69594;43.516;1.498;2023-05-07T14:54:06;5.90;;;1.57;;
80293;SDS011;69594;43.516;1.498;2023-05-07T14:56:32;5.68;;;1.80;;
80293;SDS011;69594;43.516;1.498;2023-05-07T14:58:57;6.47;;;1.80;;
80293;SDS011;69594;43.516;1.498;2023-05-07T15:01:24;6.80;;;2.00;;
80293;SDS011;69594;43.516;1.498;2023-05-07T15:03:50;5.78;;;1.38;;